Time;durP1;ratioP1;P1;durP2;ratioP2;P2;SDS_P1;SDS_P2;PMS_P1;PMS_P2;Temp;Humidity;BMP_temperature;BMP_pressure;BME280_temperature;BME280_humidity;BME280_pressure;Samples;Min_cycle;Max_cycle;Signal;HPM_P1;HPM_P2
2021/12/16 00:01:46;;;;;;;;;55.00;44.00;;;;;22.23;49.87;102657.41;6318622;22;45179;-75
2021/12/16 00:08:38;;;;;;;;;50.50;40.00;;;;;22.28;50.52;102661.81;6318549;22;45353;-75
2021/12/16 00:19:25;;;;;;;;;48.50;39.50;;;;;22.32;50.63;102670.63;6318229;22;45459;-75
2021/12/16 00:35:10;;;;;;;;;51.00;40.00;;;;;22.31;50.43;102668.88;6341525;22;45218;-75
2021/12/16 00:37:35;;;;;;;;;50.75;39.25;;;;;22.34;50.37;102666.22;6341611;22;45221;-75
2021/12/16 00:40:00;;;;;;;;;49.00;40.75;;;;;22.35;50.11;102669.75;6342324;22;45710;-74
2021/12/16 00:42:48;;;;;;;;;48.50;41.00;;;;;22.31;50.00;102660.03;6287735;22;45190;-75
2021/12/16 00:45:42;;;;;;;;;48.75;38.75;;;;;22.32;49.54;102657.34;6271239;22;48153;-75
2021/12/16 00:48:10;;;;;;;;;46.75;38.50;;;;;22.32;49.54;102652.03;6340266;22;45192;-75
2021/12/16 00:55:51;;;;;;;;;42.50;36.00;;;;;22.33;49.84;102653.81;6317901;22;45392;-76
2021/12/16 00:58:20;;;;;;;;;47.50;39.50;;;;;22.33;49.46;102653.81;6341957;22;45148;-75
2021/12/16 01:00:53;;;;;;;;;46.50;39.25;;;;;22.31;49.69;102650.25;6314189;22;45367;-76
2021/12/16 01:06:11;;;;;;;;;51.00;39.00;;;;;22.33;50.07;102652.91;6341322;22;45306;-76
2021/12/16 01:35:50;;;;;;;;;53.50;41.25;;;;;22.35;49.85;102652.00;6327752;22;45347;-75
2021/12/16 01:38:53;;;;;;;;;51.00;42.50;;;;;22.35;49.81;102648.47;6342091;22;45374;-76
2021/12/16 01:57:03;;;;;;;;;58.50;44.50;;;;;22.34;49.69;102665.34;6336735;22;45228;-75
2021/12/16 01:59:34;;;;;;;;;53.00;44.50;;;;;22.32;49.11;102657.34;6315829;22;48256;-75
2021/12/16 02:02:12;;;;;;;;;54.00;44.00;;;;;22.33;49.09;102664.44;6341507;22;45369;-75
2021/12/16 02:04:53;;;;;;;;;58.50;45.75;;;;;22.33;49.63;102669.78;6341761;22;45381;-76
2021/12/16 02:07:42;;;;;;;;;58.75;46.50;;;;;22.31;49.61;102665.34;6313032;22;45684;-75
2021/12/16 02:10:04;;;;;;;;;56.50;46.00;;;;;22.32;49.34;102673.31;6340531;22;45316;-75
2021/12/16 02:34:15;;;;;;;;;61.50;47.25;;;;;22.29;48.81;102670.69;6315916;22;45368;-75
2021/12/16 02:36:43;;;;;;;;;61.50;47.00;;;;;22.27;49.08;102668.03;6317362;22;45322;-75
2021/12/16 02:39:18;;;;;;;;;58.50;46.25;;;;;22.29;48.97;102668.91;6312603;22;45358;-76
2021/12/16 02:41:45;;;;;;;;;62.00;48.00;;;;;22.30;49.06;102675.09;6341066;22;45894;-74
2021/12/16 02:49:23;;;;;;;;;59.75;46.75;;;;;22.31;48.83;102671.53;6295446;22;45256;-75
2021/12/16 02:51:49;;;;;;;;;58.00;46.00;;;;;22.32;48.65;102664.44;6261143;22;48216;-76
2021/12/16 02:54:14;;;;;;;;;58.00;46.50;;;;;22.31;48.95;102666.22;6341045;22;45109;-75
2021/12/16 02:56:39;;;;;;;;;59.25;46.50;;;;;22.27;49.01;102667.16;6312412;22;45218;-75
2021/12/16 02:59:05;;;;;;;;;60.00;47.25;;;;;22.26;48.58;102666.28;6312417;22;65065;-76
2021/12/16 03:01:40;;;;;;;;;58.00;46.00;;;;;22.31;48.59;102665.34;6287198;22;47271;-76
2021/12/16 03:04:08;;;;;;;;;57.75;47.25;;;;;22.31;48.55;102662.69;6314568;22;45235;-76
2021/12/16 03:06:35;;;;;;;;;56.25;46.25;;;;;22.31;48.83;102665.34;6314183;22;45429;-75
2021/12/16 03:09:03;;;;;;;;;59.50;47.25;;;;;22.28;48.92;102661.81;6314427;22;45380;-76
2021/12/16 03:11:42;;;;;;;;;58.00;47.00;;;;;22.28;48.74;102663.59;6288751;22;45251;-76
2021/12/16 03:21:32;;;;;;;;;57.25;46.00;;;;;22.24;48.88;102667.16;6314621;22;45270;-76
2021/12/16 03:36:47;;;;;;;;;59.00;47.25;;;;;22.27;48.66;102678.69;6289730;22;45189;-75
2021/12/16 03:39:13;;;;;;;;;62.50;46.25;;;;;22.28;48.12;102666.25;6314043;22;45449;-75
2021/12/16 03:41:39;;;;;;;;;55.50;45.00;;;;;22.29;48.23;102676.88;6314238;22;46590;-75
2021/12/16 03:44:08;;;;;;;;;55.75;45.50;;;;;22.30;48.54;102672.44;6314157;22;45233;-75
2021/12/16 03:46:36;;;;;;;;;57.25;45.50;;;;;22.29;48.07;102674.22;6313687;22;45291;-75
2021/12/16 03:49:22;;;;;;;;;57.25;46.75;;;;;22.26;48.06;102673.38;6342313;22;45266;-75
2021/12/16 03:51:56;;;;;;;;;53.75;45.00;;;;;22.26;48.07;102668.06;6313939;22;48423;-75
2021/12/16 03:54:23;;;;;;;;;55.25;45.25;;;;;22.32;48.24;102675.06;6342223;22;45427;-76
2021/12/16 03:56:48;;;;;;;;;59.00;47.00;;;;;22.29;48.11;102671.56;6343598;22;45270;-75
2021/12/16 03:59:17;;;;;;;;;56.00;45.75;;;;;22.31;48.41;102673.31;6290259;22;45480;-75
2021/12/16 04:01:42;;;;;;;;;55.75;46.00;;;;;22.31;48.21;102678.63;6341911;22;45250;-75
2021/12/16 04:04:08;;;;;;;;;56.75;45.75;;;;;22.29;48.09;102670.69;6342332;22;45492;-75
2021/12/16 04:06:34;;;;;;;;;59.25;45.50;;;;;22.29;48.48;102678.66;6342265;22;45785;-75
2021/12/16 04:09:00;;;;;;;;;55.00;43.25;;;;;22.28;48.06;102680.44;6314288;22;45348;-75
2021/12/16 04:11:38;;;;;;;;;58.75;44.75;;;;;22.28;48.59;102674.25;6340208;22;69347;-75
2021/12/16 04:14:03;;;;;;;;;54.25;45.00;;;;;22.28;48.40;102684.88;6313351;22;46129;-75
2021/12/16 04:16:35;;;;;;;;;52.00;41.50;;;;;22.25;48.22;102672.50;6341983;22;45188;-76
2021/12/16 04:19:02;;;;;;;;;54.50;45.00;;;;;22.27;48.11;102677.78;6288457;22;45346;-76
2021/12/16 04:21:28;;;;;;;;;58.25;46.25;;;;;22.26;48.27;102684.03;6313685;22;46252;-76
2021/12/16 04:23:55;;;;;;;;;54.25;43.25;;;;;22.26;48.63;102684.03;6342013;22;45198;-75
2021/12/16 04:26:21;;;;;;;;;51.00;41.25;;;;;22.25;48.07;102679.59;6288454;22;45228;-75
2021/12/16 04:28:46;;;;;;;;;55.75;43.25;;;;;22.22;48.40;102676.94;6342306;22;45267;-76
2021/12/16 04:31:11;;;;;;;;;55.00;44.25;;;;;22.23;48.01;102676.91;6313258;22;58601;-76
2021/12/16 04:33:39;;;;;;;;;57.00;44.00;;;;;22.24;48.34;102680.47;6314127;22;45268;-76
2021/12/16 04:36:07;;;;;;;;;53.00;42.25;;;;;22.22;47.98;102683.13;6340427;22;45356;-76
2021/12/16 04:38:32;;;;;;;;;51.00;42.25;;;;;22.25;47.74;102692.91;6314245;22;45212;-76
2021/12/16 04:40:58;;;;;;;;;54.75;43.75;;;;;22.26;47.84;102692.88;6313944;22;45401;-74
2021/12/16 04:43:33;;;;;;;;;49.75;41.75;;;;;22.24;47.99;102685.78;6341734;22;45312;-76
2021/12/16 04:45:58;;;;;;;;;47.25;39.50;;;;;22.26;48.10;102692.00;6316166;22;45121;-76
2021/12/16 04:48:23;;;;;;;;;51.50;41.75;;;;;22.25;48.03;102696.44;6314273;22;45195;-75
2021/12/16 04:50:49;;;;;;;;;48.25;40.00;;;;;22.31;47.97;102698.16;6286604;22;70943;-76
2021/12/16 04:53:15;;;;;;;;;50.50;41.50;;;;;22.31;47.66;102700.81;6287752;22;45201;-76
2021/12/16 04:55:40;;;;;;;;;53.50;40.75;;;;;22.31;47.53;102705.25;6341885;22;45148;-75
2021/12/16 04:58:06;;;;;;;;;46.75;39.25;;;;;22.33;47.80;102703.44;6313184;22;58212;-75
2021/12/16 05:00:31;;;;;;;;;50.25;40.25;;;;;22.33;47.58;102699.03;6338425;22;66613;-76
2021/12/16 05:02:56;;;;;;;;;48.00;40.00;;;;;22.34;48.33;102703.47;6313468;22;45195;-74
2021/12/16 05:05:22;;;;;;;;;48.00;39.75;;;;;22.35;47.92;102709.66;6313803;22;45110;-74
2021/12/16 05:07:47;;;;;;;;;46.00;38.50;;;;;22.37;47.61;102710.53;6341249;22;54968;-74
2021/12/16 05:10:14;;;;;;;;;46.25;37.75;;;;;22.34;48.13;102703.47;6341135;22;50475;-73
2021/12/16 05:12:43;;;;;;;;;45.75;38.00;;;;;22.33;47.40;102699.03;6341173;22;45233;-74
2021/12/16 05:15:14;;;;;;;;;41.25;36.25;;;;;22.32;47.62;102699.03;6314016;22;45288;-74
2021/12/16 05:17:43;;;;;;;;;42.50;36.25;;;;;22.36;47.75;102704.31;6341329;22;45287;-74
2021/12/16 05:20:12;;;;;;;;;42.00;33.75;;;;;22.32;47.64;102699.91;6288972;22;47141;-74
2021/12/16 05:28:11;;;;;;;;;41.25;35.50;;;;;22.35;48.05;102701.69;6267943;22;45334;-74
2021/12/16 05:30:36;;;;;;;;;39.25;34.50;;;;;22.37;47.79;102707.88;6341637;22;45477;-74
2021/12/16 05:33:02;;;;;;;;;42.50;36.75;;;;;22.36;47.79;102711.41;6312435;22;67517;-74
2021/12/16 05:35:27;;;;;;;;;38.50;32.25;;;;;22.36;47.47;102706.97;6341765;22;45356;-74
2021/12/16 05:37:53;;;;;;;;;39.25;33.25;;;;;22.34;47.47;102707.91;6341625;22;45371;-74
2021/12/16 05:40:23;;;;;;;;;35.50;32.00;;;;;22.35;47.72;102709.66;6338728;22;69169;-74
2021/12/16 05:42:53;;;;;;;;;44.75;36.25;;;;;22.36;47.14;102717.63;6289537;22;45329;-74
2021/12/16 05:45:19;;;;;;;;;38.50;34.25;;;;;22.35;47.48;102717.66;6341818;22;45168;-74
2021/12/16 05:47:44;;;;;;;;;37.75;31.75;;;;;22.33;47.22;102719.41;6261410;22;45310;-75
2021/12/16 05:50:10;;;;;;;;;41.75;34.75;;;;;22.36;47.13;102722.06;6313420;22;45222;-73
2021/12/16 05:52:35;;;;;;;;;39.25;33.25;;;;;22.36;47.29;102720.28;6340703;22;62924;-74
2021/12/16 05:55:01;;;;;;;;;42.00;34.75;;;;;22.37;47.38;102724.72;6342047;22;45167;-72
2021/12/16 05:57:26;;;;;;;;;35.00;33.00;;;;;22.37;47.24;102727.38;6296745;22;45198;-74
2021/12/16 05:59:52;;;;;;;;;35.00;31.50;;;;;22.37;47.50;102729.16;6313607;22;45210;-74
2021/12/16 06:02:17;;;;;;;;;41.25;36.50;;;;;22.39;47.96;102732.66;6314474;22;45184;-72
2021/12/16 06:04:43;;;;;;;;;34.25;31.25;;;;;22.41;47.73;102734.41;6340505;22;64279;-72
2021/12/16 06:07:09;;;;;;;;;37.25;33.00;;;;;22.43;48.42;102737.97;6341568;22;45422;-75
2021/12/16 06:09:34;;;;;;;;;56.25;45.50;;;;;22.58;48.53;102739.59;6341356;22;45594;-75
2021/12/16 06:12:01;;;;;;;;;49.75;41.25;;;;;22.75;48.79;102744.75;6341369;22;45270;-76
2021/12/16 06:14:54;;;;;;;;;43.75;37.25;;;;;22.91;48.62;102743.75;6261129;22;45323;-76
2021/12/16 06:26:23;;;;;;;;;40.50;35.50;;;;;23.42;47.77;102742.28;6295809;22;45359;-72
2021/12/16 06:28:12;;;;;;;;;42.50;35.00;;;;;23.54;46.86;102740.34;6317720;22;45412;-72
2021/12/16 06:30:40;;;;;;;;;41.50;33.50;;;;;23.53;47.22;102744.81;6292393;22;47349;-73
2021/12/16 06:33:08;;;;;;;;;42.75;34.75;;;;;23.51;47.20;102741.28;6341146;22;45391;-72
2021/12/16 06:35:33;;;;;;;;;44.75;36.50;;;;;23.47;46.62;102744.91;6317867;22;45193;-73
2021/12/16 06:37:59;;;;;;;;;39.75;33.75;;;;;23.41;47.25;102744.97;6290913;22;45413;-71
2021/12/16 06:40:24;;;;;;;;;41.00;35.25;;;;;23.35;47.34;102740.59;6344792;22;45393;-72
2021/12/16 06:42:53;;;;;;;;;36.75;33.25;;;;;23.30;47.00;102741.56;6315892;22;66360;-71
2021/12/16 06:45:24;;;;;;;;;42.50;33.25;;;;;23.25;47.61;102740.72;6343608;22;45433;-69
2021/12/16 06:47:58;;;;;;;;;43.75;32.75;;;;;23.21;47.00;102747.88;6317875;22;45732;-72
2021/12/16 06:50:41;;;;;;;;;37.75;32.50;;;;;23.16;47.67;102755.03;6291705;22;48143;-70
2021/12/16 06:53:09;;;;;;;;;43.25;31.50;;;;;23.11;48.03;102747.09;6320849;22;45318;-73
2021/12/16 06:58:10;;;;;;;;;38.00;33.00;;;;;23.04;47.29;102750.72;6316652;22;45423;-75
2021/12/16 07:00:42;;;;;;;;;39.25;33.00;;;;;23.00;48.00;102759.63;6343800;22;45313;-72
2021/12/16 07:03:17;;;;;;;;;38.25;32.75;;;;;22.99;47.63;102762.31;6318225;22;45199;-73
2021/12/16 07:05:43;;;;;;;;;34.75;29.75;;;;;22.96;48.29;102763.25;6319003;22;45376;-74
2021/12/16 07:08:12;;;;;;;;;38.25;31.50;;;;;22.94;47.88;102758.84;6344482;22;45196;-74
2021/12/16 07:10:38;;;;;;;;;35.25;30.75;;;;;22.93;48.46;102760.59;6290047;22;46726;-74
2021/12/16 07:13:07;;;;;;;;;39.25;33.25;;;;;22.92;48.07;102771.25;6344271;22;45322;-73
2021/12/16 07:15:33;;;;;;;;;34.00;30.50;;;;;22.89;48.08;102764.19;6343412;22;45089;-72
2021/12/16 07:17:58;;;;;;;;;38.25;31.75;;;;;22.88;48.29;102769.53;6316648;22;45456;-74
2021/12/16 07:20:26;;;;;;;;;36.75;33.00;;;;;22.82;48.19;102763.34;6343853;22;46077;-74
2021/12/16 07:22:51;;;;;;;;;34.00;30.25;;;;;22.81;47.99;102772.22;6290391;22;45295;-73
2021/12/16 07:25:16;;;;;;;;;37.50;32.75;;;;;22.81;48.00;102776.66;6289734;22;59342;-74
2021/12/16 07:27:45;;;;;;;;;33.25;31.00;;;;;22.79;48.10;102770.47;6342946;22;45292;-73
2021/12/16 07:30:33;;;;;;;;;40.25;32.25;;;;;22.76;48.08;102767.81;6290819;22;46165;-73
2021/12/16 07:32:58;;;;;;;;;36.50;31.25;;;;;22.69;47.79;102764.34;6298818;22;45294;-73
2021/12/16 07:35:25;;;;;;;;;37.00;31.25;;;;;22.71;48.08;102778.53;6316446;22;45438;-73
2021/12/16 07:37:50;;;;;;;;;37.25;32.00;;;;;22.69;47.93;102775.00;6316283;22;46108;-74
2021/12/16 07:40:17;;;;;;;;;31.75;30.50;;;;;22.68;47.90;102777.69;6290223;22;45310;-73
2021/12/16 07:42:46;;;;;;;;;34.00;30.50;;;;;22.67;48.21;102781.22;6343693;22;45265;-73
2021/12/16 07:45:13;;;;;;;;;33.25;27.75;;;;;22.65;48.36;102781.25;6291471;22;45226;-73
2021/12/16 07:47:38;;;;;;;;;37.00;30.25;;;;;22.62;47.84;102767.97;6314123;22;45165;-73
2021/12/16 07:50:04;;;;;;;;;29.50;26.50;;;;;22.63;48.00;102779.50;6313898;22;47085;-73
2021/12/16 07:52:29;;;;;;;;;32.75;29.00;;;;;22.59;47.81;102773.31;6289518;22;45494;-73
2021/12/16 07:54:55;;;;;;;;;37.75;32.25;;;;;22.59;48.14;102778.66;6342323;22;45232;-73
2021/12/16 07:57:20;;;;;;;;;34.25;30.00;;;;;22.56;48.14;102776.88;6342347;22;45256;-73
2021/12/16 07:59:47;;;;;;;;;35.75;30.50;;;;;22.55;48.12;102769.78;6342187;22;45298;-73
2021/12/16 08:02:18;;;;;;;;;33.00;29.50;;;;;22.55;47.77;102777.78;6287975;22;45236;-73
2021/12/16 08:04:45;;;;;;;;;36.25;29.00;;;;;22.53;48.07;102784.91;6289287;22;45188;-74
2021/12/16 08:07:24;;;;;;;;;;;;;;;;;;;;;
2021/12/16 08:09:55;;;;;;;;;34.25;29.25;;;;;22.50;47.86;102782.25;6291728;22;75412;-72
2021/12/16 08:12:20;;;;;;;;;33.50;29.25;;;;;22.52;48.14;102787.56;6314516;22;45228;-73
2021/12/16 08:14:46;;;;;;;;;32.25;27.25;;;;;22.50;47.60;102800.91;6313107;22;45269;-73
2021/12/16 08:17:12;;;;;;;;;32.00;27.75;;;;;22.50;47.96;102798.22;6287174;22;45393;-73
2021/12/16 08:19:37;;;;;;;;;32.00;27.25;;;;;22.50;47.32;102803.56;6313960;22;45306;-72
2021/12/16 08:22:03;;;;;;;;;36.25;28.00;;;;;22.49;47.58;102799.09;6341753;22;45234;-73
2021/12/16 08:24:28;;;;;;;;;28.50;27.00;;;;;22.48;47.47;102802.66;6341528;22;45395;-73
2021/12/16 08:26:54;;;;;;;;;34.25;28.00;;;;;22.48;47.29;102802.66;6287381;22;46624;-73
2021/12/16 08:29:19;;;;;;;;;34.25;28.00;;;;;22.48;47.45;102802.66;6313935;22;46094;-73
2021/12/16 08:31:45;;;;;;;;;30.75;27.75;;;;;22.48;47.30;102802.66;6313222;22;46092;-73
2021/12/16 08:34:11;;;;;;;;;27.00;25.25;;;;;22.47;47.67;102805.34;6341692;22;45244;-73
2021/12/16 08:36:36;;;;;;;;;28.50;26.25;;;;;22.48;47.46;102801.78;6314186;22;45267;-74
2021/12/16 08:39:04;;;;;;;;;29.00;28.50;;;;;22.47;47.40;102794.69;6314060;22;45196;-74
2021/12/16 08:41:36;;;;;;;;;26.50;25.25;;;;;22.46;47.24;102807.13;6314320;22;45306;-74
2021/12/16 08:44:01;;;;;;;;;27.00;23.25;;;;;22.45;47.33;102807.13;6342205;22;45167;-73
2021/12/16 08:46:29;;;;;;;;;28.00;24.25;;;;;22.45;47.32;102807.13;6287406;22;45856;-73
2021/12/16 08:48:54;;;;;;;;;31.25;28.00;;;;;22.45;47.58;102810.69;6288301;22;45378;-73
2021/12/16 08:51:21;;;;;;;;;29.00;25.75;;;;;22.46;47.21;102817.75;6314290;22;46028;-73
2021/12/16 08:53:47;;;;;;;;;31.50;26.75;;;;;22.42;47.07;102817.81;6342031;22;45296;-73
2021/12/16 08:56:13;;;;;;;;;29.75;26.00;;;;;22.42;47.70;102817.81;6314124;22;45521;-73
2021/12/16 08:58:39;;;;;;;;;28.75;27.75;;;;;22.44;47.23;102824.88;6312976;22;56887;-73
2021/12/16 09:01:08;;;;;;;;;27.25;26.25;;;;;22.43;47.49;102825.78;6341492;22;45093;-74
2021/12/16 09:03:34;;;;;;;;;29.25;25.25;;;;;22.42;47.36;102813.38;6341951;22;45424;-73
2021/12/16 09:05:59;;;;;;;;;27.25;25.50;;;;;22.41;47.02;102822.22;6313565;22;45457;-73
2021/12/16 09:08:25;;;;;;;;;23.75;22.00;;;;;22.41;47.45;102827.53;6341807;22;45320;-73
2021/12/16 09:10:50;;;;;;;;;32.00;26.00;;;;;22.39;47.25;102823.13;6313928;22;45240;-73
2021/12/16 09:13:17;;;;;;;;;34.25;26.75;;;;;22.41;46.79;102830.19;6262041;22;45258;-73
2021/12/16 09:15:55;;;;;;;;;29.50;28.25;;;;;22.39;47.21;102829.34;6261732;22;45386;-73
2021/12/16 09:18:22;;;;;;;;;27.00;24.00;;;;;22.40;47.14;102832.88;6313609;22;48034;-73
2021/12/16 09:20:48;;;;;;;;;24.25;21.00;;;;;22.40;47.22;102828.44;6261887;22;45172;-73
2021/12/16 09:23:13;;;;;;;;;27.50;24.25;;;;;22.37;47.10;102831.13;6288327;22;45507;-73
2021/12/16 09:25:39;;;;;;;;;27.75;24.25;;;;;22.38;47.22;102832.88;6313927;22;52576;-73
2021/12/16 09:28:04;;;;;;;;;26.25;24.50;;;;;22.41;47.25;102843.50;6313475;22;47395;-73
2021/12/16 09:30:31;;;;;;;;;29.00;25.25;;;;;22.40;47.18;102846.19;6311602;22;66120;-73
2021/12/16 09:32:59;;;;;;;;;30.25;26.25;;;;;22.38;47.10;102838.22;6313397;22;45265;-73
2021/12/16 09:35:24;;;;;;;;;28.75;24.00;;;;;22.40;46.51;102840.84;6287793;22;45470;-73
2021/12/16 09:37:51;;;;;;;;;25.25;23.25;;;;;22.40;46.59;102840.84;6313271;22;46126;-73
2021/12/16 09:40:21;;;;;;;;;25.25;21.25;;;;;22.40;46.72;102840.84;6341875;22;45261;-73
2021/12/16 09:42:46;;;;;;;;;27.25;24.25;;;;;22.36;46.56;102844.44;6341300;22;45250;-72
2021/12/16 09:45:13;;;;;;;;;24.25;22.75;;;;;22.39;46.42;102850.63;6286815;22;45504;-72
2021/12/16 09:47:39;;;;;;;;;29.75;25.75;;;;;22.39;46.86;102855.06;6287798;22;48079;-72
2021/12/16 09:50:05;;;;;;;;;28.50;24.75;;;;;22.41;46.77;102861.25;6287816;22;45218;-72
2021/12/16 09:52:31;;;;;;;;;24.25;21.00;;;;;22.40;46.75;102865.69;6287654;22;45173;-72
2021/12/16 09:54:56;;;;;;;;;24.75;22.25;;;;;22.40;46.38;102859.47;6287242;22;45401;-72
2021/12/16 09:57:22;;;;;;;;;23.00;20.25;;;;;22.39;46.26;102863.03;6287119;22;48305;-72
2021/12/16 09:59:48;;;;;;;;;20.75;20.00;;;;;22.40;46.58;102868.34;6288089;22;45190;-73
2021/12/16 10:02:16;;;;;;;;;27.25;24.00;;;;;22.40;46.67;102872.78;6341725;22;45221;-73
2021/12/16 10:04:42;;;;;;;;;25.50;23.50;;;;;22.39;46.18;102869.25;6341210;22;45240;-73
2021/12/16 10:07:11;;;;;;;;;25.75;22.00;;;;;22.39;46.67;102871.91;6287522;22;45830;-73
2021/12/16 10:09:37;;;;;;;;;18.75;17.00;;;;;22.38;46.54;102869.25;6341016;22;45174;-74
2021/12/16 10:12:12;;;;;;;;;21.25;21.00;;;;;22.38;46.62;102870.13;6287413;22;45398;-74
2021/12/16 10:14:59;;;;;;;;;26.25;23.25;;;;;22.38;46.53;102874.59;6314774;22;45476;-73
2021/12/16 10:17:30;;;;;;;;;25.75;21.25;;;;;22.37;46.50;102868.38;6317639;22;47165;-73
2021/12/16 10:20:05;;;;;;;;;25.25;23.50;;;;;22.37;46.52;102878.13;6341245;22;45184;-74
2021/12/16 10:22:37;;;;;;;;;22.25;19.50;;;;;22.36;46.25;102877.25;6315938;22;45203;-73
2021/12/16 10:25:23;;;;;;;;;23.50;22.25;;;;;22.35;46.59;102870.16;6288039;22;45346;-73
2021/12/16 10:27:56;;;;;;;;;20.50;20.50;;;;;22.34;46.01;102871.06;6340846;22;46146;-75
2021/12/16 10:30:22;;;;;;;;;25.00;20.75;;;;;22.35;46.13;102867.50;6312662;22;45335;-72
2021/12/16 10:32:49;;;;;;;;;22.75;18.50;;;;;22.33;46.09;102869.31;6341433;22;45274;-72
2021/12/16 10:35:33;;;;;;;;;23.00;18.75;;;;;22.34;46.38;102873.72;6313758;22;45577;-72
2021/12/16 10:38:05;;;;;;;;;22.25;20.25;;;;;22.35;45.92;102870.16;6340546;22;63748;-73
2021/12/16 10:40:48;;;;;;;;;21.00;20.00;;;;;22.36;46.34;102871.06;6312991;22;45286;-73
2021/12/16 10:43:15;;;;;;;;;22.25;21.25;;;;;22.36;46.19;102877.25;6286978;22;45354;-73
2021/12/16 10:45:52;;;;;;;;;20.75;19.50;;;;;22.35;46.04;102870.16;6313163;22;45318;-73
2021/12/16 10:48:20;;;;;;;;;21.50;19.50;;;;;22.34;45.85;102873.72;6289349;22;47756;-73
2021/12/16 10:50:52;;;;;;;;;25.25;21.50;;;;;22.36;46.18;102871.94;6314743;22;45204;-73
2021/12/16 10:53:56;;;;;;;;;20.00;20.00;;;;;22.36;46.09;102866.59;6343308;22;45312;-74
2021/12/16 10:56:35;;;;;;;;;17.75;17.25;;;;;22.36;45.98;102871.06;6345287;22;45283;-72
2021/12/16 10:59:07;;;;;;;;;25.25;19.75;;;;;22.35;45.58;102875.50;6319693;22;47456;-73
2021/12/16 11:01:45;;;;;;;;;22.25;19.50;;;;;22.37;45.71;102872.81;6287419;22;45415;-73
2021/12/16 11:04:17;;;;;;;;;21.25;18.25;;;;;22.34;45.73;102863.09;6288485;22;45183;-72
2021/12/16 11:06:49;;;;;;;;;19.00;17.50;;;;;22.34;45.79;102857.75;6288172;22;45390;-72
2021/12/16 11:09:21;;;;;;;;;22.50;18.25;;;;;22.37;45.49;102871.03;6261362;22;48384;-73
2021/12/16 11:11:47;;;;;;;;;24.00;20.25;;;;;22.35;45.63;102864.84;6286472;22;45983;-73
2021/12/16 11:14:12;;;;;;;;;21.25;18.75;;;;;22.37;45.86;102870.16;6312220;22;60116;-73
2021/12/16 11:16:38;;;;;;;;;22.50;20.50;;;;;22.36;45.75;102877.25;6285993;22;67891;-73
2021/12/16 11:19:03;;;;;;;;;21.25;18.25;;;;;22.37;45.74;102870.16;6313033;22;45204;-73
2021/12/16 11:21:40;;;;;;;;;22.25;21.00;;;;;22.36;45.84;102868.38;6313366;22;45541;-73
2021/12/16 11:24:22;;;;;;;;;18.75;17.50;;;;;22.34;45.73;102868.41;6347805;22;45191;-73
2021/12/16 11:26:47;;;;;;;;;21.25;19.00;;;;;22.35;45.70;102874.59;6288217;22;45205;-74
2021/12/16 11:29:17;;;;;;;;;17.00;15.75;;;;;22.36;45.24;102876.38;6342118;22;45208;-75
2021/12/16 11:31:46;;;;;;;;;15.75;15.75;;;;;22.34;46.03;102868.41;6313492;22;45287;-73
2021/12/16 11:34:11;;;;;;;;;20.50;17.25;;;;;22.34;45.50;102873.72;6289675;22;45254;-74
2021/12/16 11:36:45;;;;;;;;;19.00;15.00;;;;;22.28;45.48;102852.47;6341203;22;69627;-73
2021/12/16 11:39:21;;;;;;;;;20.25;18.00;;;;;22.35;45.81;102858.66;6342301;22;46320;-73
2021/12/16 11:41:50;;;;;;;;;18.50;17.00;;;;;22.35;45.80;102867.50;6313641;22;45559;-73
2021/12/16 11:44:45;;;;;;;;;20.00;16.00;;;;;22.35;45.96;102862.19;6342559;22;45368;-74
2021/12/16 11:47:23;;;;;;;;;14.75;14.50;;;;;22.35;45.44;102859.53;6282278;22;45391;-72
2021/12/16 11:49:59;;;;;;;;;15.50;15.25;;;;;22.31;45.84;102857.75;6315107;22;46120;-73
2021/12/16 11:52:29;;;;;;;;;18.50;18.50;;;;;22.32;45.50;102861.31;6314646;22;45220;-74
2021/12/16 11:54:55;;;;;;;;;19.00;18.00;;;;;22.30;45.72;102842.69;6288313;22;45397;-73
2021/12/16 11:57:24;;;;;;;;;19.00;17.50;;;;;22.35;45.53;102856.88;6314552;22;45242;-73
2021/12/16 11:59:56;;;;;;;;;20.25;17.50;;;;;22.32;45.35;102858.63;6314065;22;47941;-73
2021/12/16 12:02:35;;;;;;;;;20.25;17.25;;;;;22.35;45.34;102859.53;6341962;22;45409;-73
2021/12/16 12:05:27;;;;;;;;;19.75;18.25;;;;;22.34;45.22;102863.09;6342291;22;45378;-73
2021/12/16 12:08:00;;;;;;;;;15.50;15.50;;;;;22.35;45.37;102858.66;6314226;22;45512;-75
2021/12/16 12:11:03;;;;;;;;;;;;;;;;;;;;;
2021/12/16 12:13:37;;;;;;;;;16.50;16.25;;;;;22.34;45.16;102859.53;6327555;22;72864;-73
2021/12/16 12:16:09;;;;;;;;;17.50;14.75;;;;;22.34;45.03;102857.75;6341943;22;45220;-73
2021/12/16 12:18:40;;;;;;;;;17.25;16.75;;;;;22.33;45.20;102853.34;6315534;22;45553;-74
2021/12/16 12:21:30;;;;;;;;;18.50;16.75;;;;;22.35;45.31;102850.66;6341931;22;45905;-74
2021/12/16 12:24:09;;;;;;;;;19.00;15.50;;;;;22.34;45.12;102840.91;6317802;22;45184;-72
2021/12/16 12:26:57;;;;;;;;;18.75;16.25;;;;;22.33;45.47;102850.69;6314408;22;45302;-73
2021/12/16 12:29:31;;;;;;;;;16.75;16.75;;;;;22.34;45.12;102848.91;6342205;22;45191;-73
2021/12/16 12:31:58;;;;;;;;;14.00;14.00;;;;;22.33;45.11;102844.44;6313697;22;45487;-73
2021/12/16 12:34:23;;;;;;;;;18.50;14.75;;;;;22.31;44.97;102844.47;6339867;22;45745;-73
2021/12/16 12:36:50;;;;;;;;;13.25;12.50;;;;;22.33;45.10;102840.03;6314673;22;45452;-73
2021/12/16 12:39:21;;;;;;;;;16.25;14.00;;;;;22.31;44.97;102844.47;6342100;22;45139;-73
2021/12/16 12:41:47;;;;;;;;;18.25;17.25;;;;;22.32;45.03;102843.56;6313309;22;47247;-73
2021/12/16 12:44:12;;;;;;;;;15.25;14.50;;;;;22.31;45.05;102849.78;6313987;22;45260;-73
2021/12/16 12:46:39;;;;;;;;;16.00;15.75;;;;;22.32;45.16;102845.34;6288053;22;45234;-74
2021/12/16 12:49:06;;;;;;;;;20.00;17.75;;;;;22.33;45.09;102845.34;6288674;22;45262;-74
2021/12/16 12:51:43;;;;;;;;;17.75;15.00;;;;;22.33;44.96;102840.03;6341787;22;46016;-73
2021/12/16 12:54:21;;;;;;;;;17.00;14.50;;;;;22.33;45.35;102832.06;6314343;22;45240;-73
2021/12/16 12:56:47;;;;;;;;;20.75;17.25;;;;;22.32;45.06;102834.69;6342000;22;45251;-73
2021/12/16 12:59:15;;;;;;;;;14.75;13.75;;;;;22.31;45.05;102828.50;6287224;22;45343;-74
2021/12/16 13:01:47;;;;;;;;;15.50;13.25;;;;;22.33;45.59;102832.06;6313692;22;45594;-73
2021/12/16 13:04:14;;;;;;;;;14.00;11.25;;;;;22.33;45.16;102829.41;6262828;22;45364;-74
2021/12/16 13:06:50;;;;;;;;;16.50;15.50;;;;;22.33;45.00;102832.06;6314283;22;45149;-73
2021/12/16 13:09:27;;;;;;;;;22.25;19.25;;;;;22.31;44.96;102827.63;6314468;22;45131;-73
2021/12/16 13:11:52;;;;;;;;;16.50;15.00;;;;;22.32;45.05;102824.94;6314344;22;45269;-73
2021/12/16 13:14:24;;;;;;;;;14.25;13.00;;;;;22.32;45.24;102822.28;6282292;22;45197;-73
2021/12/16 13:28:32;;;;;;;;;14.25;13.25;;;;;22.32;44.58;102813.41;6310359;22;45479;-74
2021/12/16 13:31:03;;;;;;;;;18.00;16.75;;;;;22.32;44.53;102816.97;6309355;22;45193;-73
2021/12/16 13:33:42;;;;;;;;;16.25;15.50;;;;;22.31;44.61;102807.22;6259062;22;45350;-73
2021/12/16 13:36:17;;;;;;;;;17.75;17.00;;;;;22.32;44.56;102795.69;6309809;22;45160;-73
2021/12/16 13:38:47;;;;;;;;;18.50;17.00;;;;;22.30;44.86;102802.78;6310144;22;45235;-73
2021/12/16 13:41:28;;;;;;;;;15.50;13.50;;;;;22.33;44.81;102808.13;6310511;22;45232;-73
2021/12/16 13:44:13;;;;;;;;;22.75;18.00;;;;;22.32;44.97;102803.66;6281519;22;48087;-72
2021/12/16 13:46:57;;;;;;;;;16.75;14.50;;;;;22.33;44.95;102807.19;6260527;22;46044;-73
2021/12/16 14:03:45;;;;;;;;;18.50;17.75;;;;;22.29;44.83;102801.03;6265261;22;45391;-73
2021/12/16 14:06:13;;;;;;;;;17.50;15.50;;;;;22.31;44.67;102809.00;6284482;22;45443;-74
2021/12/16 14:08:47;;;;;;;;;18.00;17.00;;;;;22.31;44.75;102809.88;6231850;22;45300;-73
2021/12/16 14:23:41;;;;;;;;;16.00;15.75;;;;;22.28;44.90;102800.16;6341748;22;45101;-73